createdAt,value
2018-08-30T00:00:39.758Z,11.70
2018-08-30T00:03:07.190Z,11.60
2018-08-30T00:05:33.836Z,11.60
2018-08-30T00:08:01.283Z,11.50
2018-08-30T00:10:27.926Z,11.50
2018-08-30T00:12:54.595Z,11.50
2018-08-30T00:15:22.036Z,11.60
2018-08-30T00:17:48.700Z,11.50
2018-08-30T00:20:15.414Z,11.60
2018-08-30T00:22:42.208Z,11.60
2018-08-30T00:25:08.865Z,11.60
2018-08-30T00:27:35.510Z,11.60
2018-08-30T00:30:02.208Z,11.60
2018-08-30T00:32:28.846Z,11.70
2018-08-30T00:34:55.488Z,11.70
2018-08-30T00:37:22.145Z,11.70
2018-08-30T00:39:48.801Z,11.60
2018-08-30T00:42:15.710Z,11.60
2018-08-30T00:44:42.358Z,11.60
2018-08-30T00:47:09.067Z,11.70
2018-08-30T00:49:36.479Z,11.70
2018-08-30T00:52:03.139Z,11.70
2018-08-30T00:54:29.799Z,11.70
2018-08-30T00:56:57.193Z,11.70
2018-08-30T00:59:23.863Z,11.70
2018-08-30T01:01:50.676Z,11.70
2018-08-30T01:04:17.412Z,11.70
2018-08-30T01:06:44.812Z,11.70
2018-08-30T01:09:11.532Z,11.70
2018-08-30T01:11:38.235Z,11.60
2018-08-30T01:14:04.906Z,11.50
2018-08-30T01:16:31.628Z,11.30
2018-08-30T01:18:58.333Z,11.30
2018-08-30T01:21:25.828Z,11.30
2018-08-30T01:23:52.490Z,11.20
2018-08-30T01:26:19.149Z,11.30
2018-08-30T01:28:45.991Z,11.30
2018-08-30T01:31:12.635Z,11.40
2018-08-30T01:33:39.282Z,11.40
2018-08-30T01:36:06.727Z,11.50
2018-08-30T01:38:33.382Z,11.40
2018-08-30T01:41:00.792Z,11.50
2018-08-30T01:43:27.490Z,11.50
2018-08-30T01:45:54.893Z,11.40
2018-08-30T01:48:21.572Z,11.40
2018-08-30T01:50:48.225Z,11.40
2018-08-30T01:53:15.004Z,11.40
2018-08-30T01:55:41.671Z,11.50
2018-08-30T01:58:08.308Z,11.40
2018-08-30T02:00:34.996Z,11.40
2018-08-30T02:03:01.675Z,11.40
2018-08-30T02:05:28.343Z,11.30
2018-08-30T02:07:55.761Z,11.30
2018-08-30T02:10:23.180Z,11.40
2018-08-30T02:12:50.589Z,11.40
2018-08-30T02:15:17.246Z,11.40
2018-08-30T02:17:44.692Z,11.70
2018-08-30T02:20:12.104Z,11.70
2018-08-30T02:22:38.748Z,11.60
2018-08-30T02:25:05.462Z,11.70
2018-08-30T02:27:32.103Z,11.60
2018-08-30T02:29:58.808Z,11.50
2018-08-30T02:32:26.224Z,11.20
2018-08-30T02:34:52.861Z,11.20
2018-08-30T02:37:19.712Z,11.10
2018-08-30T02:39:47.160Z,11.00
2018-08-30T02:42:13.830Z,11.00
2018-08-30T02:44:40.486Z,11.00
2018-08-30T02:47:07.161Z,10.90
2018-08-30T02:49:33.826Z,10.90
2018-08-30T02:52:00.491Z,10.90
2018-08-30T02:54:27.161Z,10.90
2018-08-30T02:56:53.826Z,10.90
2018-08-30T02:59:20.501Z,10.80
2018-08-30T03:01:47.130Z,10.80
2018-08-30T03:04:13.788Z,10.70
2018-08-30T03:06:41.204Z,10.60
2018-08-30T03:09:08.015Z,10.60
2018-08-30T03:11:34.683Z,10.60
2018-08-30T03:14:01.354Z,10.50
2018-08-30T03:16:28.014Z,10.50
2018-08-30T03:18:55.463Z,10.50
2018-08-30T03:21:22.871Z,10.50
2018-08-30T03:23:49.582Z,10.50
2018-08-30T03:26:16.237Z,10.60
2018-08-30T03:28:42.880Z,10.60
2018-08-30T03:31:09.570Z,10.70
2018-08-30T03:33:37.009Z,10.80
2018-08-30T03:36:03.734Z,10.80
2018-08-30T03:38:30.420Z,10.80
2018-08-30T03:40:57.094Z,10.70
2018-08-30T03:43:23.745Z,10.70
2018-08-30T03:45:50.421Z,10.60
2018-08-30T03:48:17.089Z,10.60
2018-08-30T03:50:43.789Z,10.50
2018-08-30T03:53:10.420Z,10.50
2018-08-30T03:55:37.068Z,10.50
2018-08-30T03:58:04.475Z,10.40
2018-08-30T04:00:31.119Z,10.40
2018-08-30T04:02:57.766Z,10.40
2018-08-30T04:05:24.469Z,10.40
2018-08-30T04:07:51.150Z,10.40
2018-08-30T04:10:17.902Z,10.50
2018-08-30T04:12:45.340Z,10.60
2018-08-30T04:15:12.029Z,10.60
2018-08-30T04:17:39.432Z,10.70
2018-08-30T04:20:06.127Z,10.70
2018-08-30T04:22:33.496Z,10.90
2018-08-30T04:25:00.222Z,10.90
2018-08-30T04:27:27.591Z,11.00
2018-08-30T04:29:54.251Z,11.00
2018-08-30T04:32:20.896Z,11.10
2018-08-30T04:34:47.547Z,11.20
2018-08-30T04:37:14.359Z,11.20
2018-08-30T04:39:41.006Z,11.30
2018-08-30T04:42:07.631Z,11.30
2018-08-30T04:44:34.477Z,11.30
2018-08-30T04:47:01.199Z,11.30
2018-08-30T04:49:27.902Z,11.40
2018-08-30T04:51:54.610Z,11.50
2018-08-30T04:54:21.289Z,11.60
2018-08-30T04:56:47.964Z,11.70
2018-08-30T04:59:14.616Z,11.80
2018-08-30T05:01:41.460Z,11.70
2018-08-30T05:04:08.140Z,11.70
2018-08-30T05:06:34.821Z,11.70
2018-08-30T05:09:01.588Z,11.80
2018-08-30T05:11:28.241Z,11.90
2018-08-30T05:13:56.003Z,12.20
2018-08-30T05:16:22.717Z,12.30
2018-08-30T05:18:49.967Z,12.50
2018-08-30T05:21:17.436Z,12.80
2018-08-30T05:23:44.112Z,13.10
2018-08-30T05:26:11.505Z,13.50
2018-08-30T05:28:38.891Z,13.50
2018-08-30T05:31:06.066Z,13.50
2018-08-30T05:33:33.575Z,13.90
2018-08-30T05:36:00.285Z,13.90
2018-08-30T05:38:26.959Z,14.20
2018-08-30T05:40:54.370Z,14.40
2018-08-30T05:43:21.037Z,14.50
2018-08-30T05:45:48.053Z,14.70
2018-08-30T05:48:14.843Z,14.80
2018-08-30T05:50:41.624Z,14.80
2018-08-30T05:53:08.302Z,15.10
2018-08-30T05:55:35.699Z,15.00
2018-08-30T05:58:02.403Z,15.00
2018-08-30T06:00:29.796Z,15.10
2018-08-30T06:02:56.455Z,15.10
2018-08-30T06:05:23.176Z,15.40
2018-08-30T06:07:49.834Z,15.50
2018-08-30T06:10:16.487Z,15.20
2018-08-30T06:12:43.198Z,15.60
2018-08-30T06:15:09.887Z,16.60
2018-08-30T06:17:37.290Z,18.10
2018-08-30T06:20:04.072Z,18.10
2018-08-30T06:22:31.468Z,19.30
2018-08-30T06:24:58.097Z,19.20
2018-08-30T06:27:24.779Z,19.90
2018-08-30T06:29:51.419Z,21.00
2018-08-30T06:32:18.173Z,22.00
2018-08-30T06:34:44.891Z,23.20
2018-08-30T06:37:11.569Z,23.80
2018-08-30T06:39:39.108Z,23.00
2018-08-30T06:42:05.780Z,23.00
2018-08-30T06:44:32.439Z,22.10
2018-08-30T06:46:59.138Z,22.20
2018-08-30T06:49:25.803Z,22.40
2018-08-30T06:51:52.694Z,22.40
2018-08-30T06:54:19.359Z,21.80
2018-08-30T06:56:46.718Z,21.40
2018-08-30T07:02:11.172Z,22.80
2018-08-30T07:04:37.833Z,23.80
2018-08-30T07:07:04.515Z,26.10
2018-08-30T07:09:31.983Z,27.10
2018-08-30T07:11:58.713Z,27.00
2018-08-30T07:14:26.192Z,28.10
2018-08-30T07:16:52.885Z,28.10
2018-08-30T07:19:20.278Z,27.80
2018-08-30T07:21:46.968Z,27.70
2018-08-30T07:24:13.654Z,26.90
2018-08-30T07:26:40.442Z,27.30
2018-08-30T07:29:07.099Z,27.10
2018-08-30T07:31:33.767Z,27.60
2018-08-30T07:34:00.437Z,27.40
2018-08-30T07:36:27.090Z,26.50
2018-08-30T07:38:53.872Z,27.50
2018-08-30T07:41:20.496Z,27.00
2018-08-30T07:43:47.198Z,27.60
2018-08-30T07:46:14.650Z,26.80
2018-08-30T07:48:41.324Z,26.80
2018-08-30T07:51:08.213Z,27.90
2018-08-30T07:53:34.735Z,27.50
2018-08-30T07:56:01.392Z,25.60
2018-08-30T07:58:28.113Z,25.00
2018-08-30T08:00:54.911Z,24.80
2018-08-30T08:03:21.594Z,24.50
2018-08-30T08:05:48.330Z,23.70
2018-08-30T08:08:15.011Z,23.90
2018-08-30T08:10:41.642Z,23.60
2018-08-30T08:13:08.346Z,24.20
2018-08-30T08:15:36.837Z,23.20
2018-08-30T08:18:03.825Z,23.20
2018-08-30T08:20:30.505Z,23.10
2018-08-30T08:22:57.304Z,23.70
2018-08-30T08:25:24.059Z,23.60
2018-08-30T08:27:50.681Z,23.60
2018-08-30T08:30:17.882Z,23.10
2018-08-30T08:32:44.506Z,23.50
2018-08-30T08:35:11.899Z,22.80
2018-08-30T08:37:38.554Z,22.70
2018-08-30T08:40:05.238Z,22.80
2018-08-30T08:42:32.645Z,22.00
2018-08-30T08:44:59.273Z,21.90
2018-08-30T08:47:25.960Z,22.20
2018-08-30T08:49:52.707Z,22.30
2018-08-30T08:52:19.427Z,22.10
2018-08-30T08:54:46.087Z,22.00
2018-08-30T08:57:13.638Z,21.90
2018-08-30T08:59:40.272Z,21.90
2018-08-30T09:02:06.948Z,22.10
2018-08-30T09:04:33.610Z,22.10
2018-08-30T09:07:00.480Z,22.00
2018-08-30T09:09:27.051Z,22.10
2018-08-30T09:11:54.426Z,23.00
2018-08-30T09:14:21.239Z,23.00
2018-08-30T09:16:47.913Z,23.40
2018-08-30T09:19:14.601Z,24.40
2018-08-30T09:21:41.274Z,24.80
2018-08-30T09:24:07.925Z,24.40
2018-08-30T09:26:34.570Z,24.20
2018-08-30T09:29:01.261Z,24.20
2018-08-30T09:31:27.924Z,24.00
2018-08-30T09:33:55.466Z,24.20
2018-08-30T09:36:22.126Z,24.20
2018-08-30T09:38:49.545Z,23.00
2018-08-30T09:41:16.247Z,23.00
2018-08-30T09:43:42.958Z,23.30
2018-08-30T09:46:10.377Z,22.90
2018-08-30T09:48:37.036Z,22.90
2018-08-30T09:51:03.677Z,22.80
2018-08-30T09:53:31.148Z,22.50
2018-08-30T09:55:58.530Z,22.50
2018-08-30T09:58:25.168Z,22.50
2018-08-30T10:00:51.885Z,22.30
2018-08-30T10:03:19.274Z,22.40
2018-08-30T10:05:46.028Z,22.30
2018-08-30T10:08:12.679Z,22.40
2018-08-30T10:10:39.313Z,22.60
2018-08-30T10:13:06.006Z,22.40
2018-08-30T10:15:32.634Z,22.50
2018-08-30T10:17:59.416Z,22.40
2018-08-30T10:20:26.836Z,23.20
2018-08-30T10:22:53.502Z,23.10
2018-08-30T10:25:20.195Z,22.80
2018-08-30T10:27:47.617Z,23.40
2018-08-30T10:30:14.386Z,23.30
2018-08-30T10:32:41.032Z,23.80
2018-08-30T10:35:07.686Z,23.60
2018-08-30T10:37:34.340Z,23.30
2018-08-30T10:40:01.151Z,23.30
2018-08-30T10:42:28.608Z,23.30
2018-08-30T10:44:56.044Z,22.90
2018-08-30T10:47:22.719Z,22.80
2018-08-30T10:49:49.441Z,22.60
2018-08-30T10:52:16.119Z,22.30
2018-08-30T10:54:42.913Z,22.70
2018-08-30T10:57:09.549Z,22.70
2018-08-30T10:59:36.255Z,22.30
2018-08-30T11:02:02.931Z,22.40
2018-08-30T11:04:30.323Z,22.70
2018-08-30T11:06:57.088Z,22.70
2018-08-30T11:09:23.749Z,22.80
2018-08-30T11:11:50.405Z,22.80
2018-08-30T11:14:17.110Z,23.10
2018-08-30T11:16:43.767Z,22.90
2018-08-30T11:19:10.383Z,23.10
2018-08-30T11:21:37.095Z,22.80
2018-08-30T11:24:03.930Z,22.60
2018-08-30T11:26:30.612Z,22.40
2018-08-30T11:28:58.014Z,22.30
2018-08-30T11:31:25.513Z,22.40
2018-08-30T11:33:52.228Z,22.40
2018-08-30T11:36:18.888Z,22.20
2018-08-30T11:38:45.754Z,21.60
2018-08-30T11:41:12.411Z,21.70
2018-08-30T11:43:39.894Z,21.70
2018-08-30T11:46:07.274Z,21.70
2018-08-30T11:48:33.935Z,21.60
2018-08-30T11:51:00.629Z,21.90
2018-08-30T11:53:27.316Z,21.90
2018-08-30T11:55:54.005Z,21.80
2018-08-30T11:58:21.610Z,21.50
2018-08-30T12:00:48.352Z,21.50
2018-08-30T12:03:15.063Z,21.60
2018-08-30T12:05:41.826Z,21.80
2018-08-30T12:08:08.538Z,22.00
2018-08-30T12:10:35.994Z,21.90
2018-08-30T12:13:03.426Z,22.10
2018-08-30T12:15:30.055Z,22.00
2018-08-30T12:17:56.906Z,21.90
2018-08-30T12:20:24.345Z,21.70
2018-08-30T12:22:51.884Z,22.00
2018-08-30T12:25:18.681Z,22.00
2018-08-30T12:27:45.349Z,21.60
2018-08-30T12:30:12.019Z,21.20
2018-08-30T12:32:38.898Z,21.20
2018-08-30T12:35:05.634Z,21.20
2018-08-30T12:37:32.246Z,21.50
2018-08-30T12:39:59.008Z,21.90
2018-08-30T12:42:25.688Z,22.40
2018-08-30T12:44:53.189Z,22.90
2018-08-30T12:47:19.912Z,22.90
2018-08-30T12:49:46.582Z,22.50
2018-08-30T12:52:14.233Z,22.10
2018-08-30T12:54:40.878Z,22.00
2018-08-30T12:57:07.602Z,22.10
2018-08-30T12:59:34.338Z,22.10
2018-08-30T13:02:01.963Z,22.30
2018-08-30T13:04:28.744Z,22.30
2018-08-30T13:06:56.108Z,22.80
2018-08-30T13:09:23.699Z,22.20
2018-08-30T13:11:50.292Z,22.10
2018-08-30T13:14:17.807Z,21.20
2018-08-30T13:16:45.090Z,21.10
2018-08-30T13:19:11.973Z,21.00
2018-08-30T13:21:38.733Z,20.70
2018-08-30T13:24:05.512Z,20.60
2018-08-30T13:26:32.125Z,20.10
2018-08-30T13:28:59.015Z,20.00
2018-08-30T13:31:25.719Z,19.80
2018-08-30T13:33:52.504Z,19.90
2018-08-30T13:36:19.206Z,19.90
2018-08-30T13:38:45.948Z,19.80
2018-08-30T13:41:13.147Z,19.80
2018-08-30T13:43:39.411Z,19.60
2018-08-30T13:46:06.081Z,19.50
2018-08-30T13:48:32.814Z,19.50
2018-08-30T13:51:00.289Z,19.40
2018-08-30T13:53:27.758Z,19.30
2018-08-30T13:55:55.302Z,19.40
2018-08-30T13:58:22.212Z,19.40
2018-08-30T14:00:49.011Z,19.40
2018-08-30T14:03:15.336Z,19.40
2018-08-30T14:05:42.070Z,19.40
2018-08-30T14:08:08.692Z,19.20
2018-08-30T14:10:36.311Z,19.10
2018-08-30T14:13:03.031Z,19.10
2018-08-30T14:15:29.832Z,19.10
2018-08-30T14:17:56.135Z,19.00
2018-08-30T14:20:22.791Z,18.90
2018-08-30T14:22:49.500Z,18.90
2018-08-30T14:25:16.150Z,18.60
2018-08-30T14:27:42.773Z,18.60
2018-08-30T14:30:09.426Z,18.60
2018-08-30T14:32:36.293Z,18.60
2018-08-30T14:35:03.011Z,18.50
2018-08-30T14:37:29.662Z,18.60
2018-08-30T14:39:56.382Z,18.50
2018-08-30T14:42:23.022Z,18.50
2018-08-30T14:44:49.664Z,18.60
2018-08-30T14:47:16.523Z,18.40
2018-08-30T14:49:43.012Z,18.40
2018-08-30T14:52:10.461Z,18.60
2018-08-30T14:54:37.917Z,18.70
2018-08-30T14:57:05.350Z,18.80
2018-08-30T14:59:32.003Z,18.80
2018-08-30T15:01:58.780Z,18.90
2018-08-30T15:04:25.417Z,19.00
2018-08-30T15:06:52.094Z,19.00
2018-08-30T15:09:18.843Z,19.00
2018-08-30T15:11:45.511Z,19.10
2018-08-30T15:14:12.235Z,19.20
2018-08-30T15:16:39.805Z,19.20
2018-08-30T15:19:06.374Z,19.10
2018-08-30T15:21:33.026Z,19.20
2018-08-30T15:23:59.701Z,19.10
2018-08-30T15:26:26.520Z,19.00
2018-08-30T15:28:54.047Z,18.90
2018-08-30T15:31:20.632Z,18.80
2018-08-30T15:33:47.326Z,18.90
2018-08-30T15:36:14.717Z,18.90
2018-08-30T15:38:42.130Z,18.70
2018-08-30T15:41:08.820Z,18.70
2018-08-30T15:43:35.470Z,18.70
2018-08-30T15:46:02.150Z,18.50
2018-08-30T15:48:28.853Z,18.50
2018-08-30T15:50:55.537Z,18.60
2018-08-30T15:53:22.280Z,18.60
2018-08-30T15:55:48.949Z,18.60
2018-08-30T15:58:15.754Z,18.60
2018-08-30T16:00:42.442Z,18.60
2018-08-30T16:03:09.109Z,18.60
2018-08-30T16:05:36.653Z,18.60
2018-08-30T16:08:03.328Z,18.60
2018-08-30T16:10:29.956Z,18.30
2018-08-30T16:12:56.674Z,18.20
2018-08-30T16:15:23.349Z,18.20
2018-08-30T16:17:50.021Z,18.20
2018-08-30T16:20:16.728Z,18.20
2018-08-30T16:22:43.447Z,18.20
2018-08-30T16:25:10.124Z,18.30
2018-08-30T16:27:36.839Z,18.30
2018-08-30T16:30:03.581Z,18.30
2018-08-30T16:32:30.395Z,18.30
2018-08-30T16:34:57.806Z,18.30
2018-08-30T16:37:24.468Z,18.30
2018-08-30T16:39:51.312Z,18.30
2018-08-30T16:42:18.016Z,18.30
2018-08-30T16:44:44.711Z,18.30
2018-08-30T16:47:12.182Z,18.20
2018-08-30T16:49:38.793Z,18.20
2018-08-30T16:52:05.536Z,18.10
2018-08-30T16:54:32.924Z,18.00
2018-08-30T16:56:59.572Z,18.00
2018-08-30T16:59:26.296Z,18.00
2018-08-30T17:01:53.079Z,18.00
2018-08-30T17:04:19.734Z,17.90
2018-08-30T17:06:46.460Z,17.90
2018-08-30T17:09:28.162Z,17.80
2018-08-30T17:11:56.543Z,17.70
2018-08-30T17:14:23.186Z,17.70
2018-08-30T17:16:51.000Z,17.70
2018-08-30T17:19:18.743Z,17.70
2018-08-30T17:21:45.438Z,17.60
2018-08-30T17:24:12.169Z,17.50
2018-08-30T17:26:38.844Z,17.50
2018-08-30T17:29:05.552Z,17.50
2018-08-30T17:31:32.249Z,17.50
2018-08-30T17:33:59.648Z,17.50
2018-08-30T17:36:26.288Z,17.50
2018-08-30T17:38:53.024Z,17.50
2018-08-30T17:41:19.709Z,17.40
2018-08-30T17:43:47.103Z,17.30
2018-08-30T17:46:13.853Z,17.30
2018-08-30T17:48:40.491Z,17.30
2018-08-30T17:51:07.208Z,17.30
2018-08-30T17:53:33.884Z,17.20
2018-08-30T17:56:00.636Z,17.10
2018-08-30T17:58:27.353Z,17.00
2018-08-30T18:00:54.104Z,17.10
2018-08-30T18:03:20.812Z,17.00
2018-08-30T18:05:47.472Z,17.00
2018-08-30T18:08:14.152Z,17.00
2018-08-30T18:10:41.794Z,17.00
2018-08-30T18:13:08.856Z,17.00
2018-08-30T18:15:35.628Z,16.90
2018-08-30T18:18:02.501Z,16.90
2018-08-30T18:20:29.180Z,16.90
2018-08-30T18:22:55.803Z,16.80
2018-08-30T18:25:22.531Z,16.70
2018-08-30T18:27:49.214Z,16.70
2018-08-30T18:30:16.700Z,16.60
2018-08-30T18:32:43.375Z,16.60
2018-08-30T18:35:10.165Z,16.70
2018-08-30T18:37:36.792Z,16.70
2018-08-30T18:40:04.230Z,16.70
2018-08-30T18:42:30.942Z,16.70
2018-08-30T18:44:57.628Z,16.70
2018-08-30T18:47:24.308Z,16.60
2018-08-30T18:49:50.994Z,16.60
2018-08-30T18:52:17.677Z,16.50
2018-08-30T18:54:44.499Z,16.50
2018-08-30T18:57:11.903Z,16.60
2018-08-30T18:59:38.573Z,16.50
2018-08-30T19:02:06.140Z,16.60
2018-08-30T19:04:33.560Z,16.60
2018-08-30T19:07:00.212Z,16.60
2018-08-30T19:09:26.951Z,16.60
2018-08-30T19:11:53.596Z,16.50
2018-08-30T19:14:20.236Z,16.50
2018-08-30T19:17:05.611Z,16.50
2018-08-30T19:19:32.361Z,16.30
2018-08-30T19:21:59.028Z,16.20
2018-08-30T19:24:25.682Z,16.20
2018-08-30T19:26:52.455Z,16.20
2018-08-30T19:29:19.101Z,16.10
2018-08-30T19:31:45.901Z,16.20
2018-08-30T19:34:12.658Z,16.20
2018-08-30T19:36:39.272Z,16.20
2018-08-30T19:39:05.994Z,16.20
2018-08-30T19:41:32.688Z,16.10
2018-08-30T19:43:59.333Z,16.00
2018-08-30T19:46:26.028Z,16.00
2018-08-30T19:48:52.736Z,16.10
2018-08-30T19:51:19.392Z,16.00
2018-08-30T19:53:46.171Z,16.00
2018-08-30T19:56:12.992Z,16.00
2018-08-30T19:58:39.718Z,16.00
2018-08-30T20:01:06.525Z,16.00
2018-08-30T20:03:33.427Z,16.00
2018-08-30T20:06:00.143Z,15.90
2018-08-30T20:08:26.810Z,16.00
2018-08-30T20:10:53.459Z,16.00
2018-08-30T20:13:20.119Z,15.90
2018-08-30T20:15:46.987Z,15.90
2018-08-30T20:18:13.668Z,15.90
2018-08-30T20:20:40.334Z,15.90
2018-08-30T20:23:07.194Z,15.80
2018-08-30T20:25:33.878Z,15.80
2018-08-30T20:28:00.590Z,15.80
2018-08-30T20:30:27.354Z,15.60
2018-08-30T20:32:54.070Z,15.60
2018-08-30T20:35:21.666Z,15.50
2018-08-30T20:37:48.387Z,15.50
2018-08-30T20:40:15.053Z,15.50
2018-08-30T20:42:41.763Z,15.40
2018-08-30T20:45:08.580Z,15.50
2018-08-30T20:47:35.252Z,15.50
2018-08-30T20:50:01.940Z,15.50
2018-08-30T20:52:28.730Z,15.50
2018-08-30T20:54:55.658Z,15.60
2018-08-30T20:57:22.587Z,15.60
2018-08-30T20:59:49.411Z,15.50
2018-08-30T21:02:18.190Z,15.50
2018-08-30T21:04:45.945Z,15.60
2018-08-30T21:07:12.584Z,15.50
2018-08-30T21:09:39.258Z,15.50
2018-08-30T21:12:06.009Z,15.50
2018-08-30T21:14:32.679Z,15.50
2018-08-30T21:16:59.365Z,15.50
2018-08-30T21:19:26.161Z,15.50
2018-08-30T21:21:52.805Z,15.50
2018-08-30T21:24:19.682Z,15.50
2018-08-30T21:26:46.320Z,15.40
2018-08-30T21:29:12.996Z,15.50
2018-08-30T21:31:40.397Z,15.30
2018-08-30T21:34:07.235Z,15.30
2018-08-30T21:36:34.014Z,15.30
2018-08-30T21:39:00.706Z,15.30
2018-08-30T21:41:27.350Z,15.30
2018-08-30T21:43:54.170Z,15.30
2018-08-30T21:46:20.891Z,15.30
2018-08-30T21:48:47.600Z,15.30
2018-08-30T21:51:14.341Z,15.40
2018-08-30T21:53:41.767Z,15.40
2018-08-30T21:56:08.385Z,15.40
2018-08-30T21:58:35.077Z,15.40
2018-08-30T22:01:02.497Z,15.50
2018-08-30T22:03:29.205Z,15.40
2018-08-30T22:05:56.618Z,15.30
2018-08-30T22:08:23.497Z,15.30
2018-08-30T22:10:50.235Z,15.30
2018-08-30T22:13:17.707Z,15.30
2018-08-30T22:15:44.444Z,15.30
2018-08-30T22:18:11.822Z,15.20
2018-08-30T22:20:38.477Z,15.20
2018-08-30T22:23:05.196Z,15.20
2018-08-30T22:25:31.887Z,15.20
2018-08-30T22:27:58.621Z,15.10
2018-08-30T22:30:25.372Z,15.20
2018-08-30T22:32:52.155Z,15.20
2018-08-30T22:35:18.806Z,15.20
2018-08-30T22:37:45.483Z,15.30
2018-08-30T22:40:12.272Z,15.20
2018-08-30T22:42:39.671Z,15.20
2018-08-30T22:45:06.304Z,15.20
2018-08-30T22:47:33.837Z,15.20
2018-08-30T22:50:00.481Z,15.20
2018-08-30T22:52:27.153Z,15.20
2018-08-30T22:54:54.605Z,15.30
2018-08-30T22:57:21.239Z,15.20
2018-08-30T22:59:47.985Z,15.20
2018-08-30T23:02:14.663Z,15.20
2018-08-30T23:04:42.065Z,15.20
2018-08-30T23:07:08.791Z,15.10
2018-08-30T23:09:35.519Z,15.10
2018-08-30T23:12:02.214Z,15.10
2018-08-30T23:14:29.157Z,15.00
2018-08-30T23:16:55.791Z,15.00
2018-08-30T23:19:23.256Z,15.00
2018-08-30T23:21:50.175Z,15.10
2018-08-30T23:24:16.876Z,15.00
2018-08-30T23:26:43.568Z,15.00
2018-08-30T23:29:10.256Z,15.00
2018-08-30T23:31:36.965Z,15.00
2018-08-30T23:34:03.683Z,15.00
2018-08-30T23:36:30.336Z,15.00
2018-08-30T23:38:56.977Z,15.00
2018-08-30T23:41:24.430Z,15.00
2018-08-30T23:43:51.058Z,15.00
2018-08-30T23:46:18.509Z,14.90
2018-08-30T23:48:45.182Z,14.80
2018-08-30T23:51:12.605Z,14.90
2018-08-30T23:53:40.058Z,14.90
2018-08-30T23:56:06.787Z,15.00
2018-08-30T23:58:45.599Z,15.00
